メインページ
METAR-TAF:

METAR-TAF

空港 :

桂林, 中華人民共和国

桂林両江国際空港

緯度: 25-20N, 経度: 110-18E, 海抜: 166m

現時点の気象観測

当レポートは22分前の06:00(UTC)に作成
の風 6kt、北東から東/南東の間で変化する
気温 8°C
湿度 93%
気圧 1022 hPa
視程: 3500m
高度600ftの雲はほとんどない
高度3000ftの雲は散在している
高度4000ftの曇り
小雨, 靄

METAR: ZGKL 140600Z 09003MPS 040V110 3500 -RA BR FEW006 SCT030 OVC040 08/07 Q1022 NOSIG

時間: 14:22 (06:22 UTC)

予報

当レポートは3時間11分前の03:11(UTC)に作成
予報は14日の 06時(UTC)から 15日の 06時(UTC)まで有効
北東の風 8kt
視程: 5000m
高度1000ftの雲はほとんどない
高度3000ftの雲は散在している
高度4000ftの曇り
小雨, 靄

TAF: ZGKL 140311Z 1406/1506 05004MPS 5000 -RA BR FEW010 SCT030 OVC040 TX10/1408Z TN06/1422Z

4,000以上の空港の気象観測と天気予報(METAR報とTAF報)

利用可能な観測所は地図上に黄色い丸と赤い丸で示す。

丸の上にカーソルを重ねると観測所名を参照できる。

次にクリックすると気象観測と天気予報を参照できる。

マップの切り替え:黒色「×」印の緑ボタンをクリックして拡大、「-」印の緑ボタンをクリックして縮小、緑色の三角印をクリックして隣りの地図に切り替え


METAR-TAF: